Terminal Aerodrome Forecast
Issued by NWS

Home | Current Version | Previous Version | Text Only | Print | Product List | Glossary On
Versions: 1 2 3 4 5 6 7 8 9 10 11 12 13 14 15 16 17 18
150
FTUS42 TJSJ 051146
TAFJPS
TAF
TJPS 051146Z 0512/0612 08006KT P6SM VCSH FEW022 SCT060
     FM051430 14012KT P6SM FEW030 SCT060
     FM052330 07005KT P6SM FEW030 SCT050
      AMD NOT SKED 0512/0603=

USA.gov is the U.S. government's official web portal to all federal, state and local government web resources and services.